sensor_id;sensor_type;location;lat;lon;timestamp;pressure;altitude;pressure_sealevel;temperature;humidity
70015;BME280;57358;51.094;6.760;2022-09-13T00:00:59;100677.53;;;16.25;100.00
70015;BME280;57358;51.094;6.760;2022-09-13T00:03:26;100443.91;;;14.71;100.00
70015;BME280;57358;51.094;6.760;2022-09-13T00:05:53;100686.53;;;16.11;100.00
70015;BME280;57358;51.094;6.760;2022-09-13T00:08:20;100676.41;;;16.05;100.00
70015;BME280;57358;51.094;6.760;2022-09-13T00:10:47;100658.81;;;15.92;100.00
70015;BME280;57358;51.094;6.760;2022-09-13T00:13:15;100662.19;;;15.94;100.00
70015;BME280;57358;51.094;6.760;2022-09-13T00:15:46;100450.13;;;14.70;100.00
70015;BME280;57358;51.094;6.760;2022-09-13T00:18:14;100403.22;;;14.37;100.00
70015;BME280;57358;51.094;6.760;2022-09-13T00:20:40;100643.00;;;15.80;100.00
70015;BME280;57358;51.094;6.760;2022-09-13T00:23:07;100639.41;;;15.81;100.00
70015;BME280;57358;51.094;6.760;2022-09-13T00:25:33;100635.44;;;15.86;100.00
70015;BME280;57358;51.094;6.760;2022-09-13T00:28:00;100611.25;;;15.80;100.00
70015;BME280;57358;51.094;6.760;2022-09-13T00:30:26;100522.94;;;15.34;100.00
70015;BME280;57358;51.094;6.760;2022-09-13T00:32:53;100584.00;;;15.66;100.00
70015;BME280;57358;51.094;6.760;2022-09-13T00:35:19;100662.78;;;15.98;100.00
70015;BME280;57358;51.094;6.760;2022-09-13T00:37:46;100381.66;;;14.43;100.00
70015;BME280;57358;51.094;6.760;2022-09-13T00:40:12;100578.34;;;15.60;100.00
70015;BME280;57358;51.094;6.760;2022-09-13T00:42:39;100613.53;;;15.84;100.00
70015;BME280;57358;51.094;6.760;2022-09-13T00:48:03;100638.41;;;16.06;100.00
70015;BME280;57358;51.094;6.760;2022-09-13T00:53:05;100630.19;;;16.09;100.00
70015;BME280;57358;51.094;6.760;2022-09-13T00:55:41;100624.91;;;16.09;100.00
70015;BME280;57358;51.094;6.760;2022-09-13T00:58:11;100628.06;;;16.14;100.00
70015;BME280;57358;51.094;6.760;2022-09-13T01:00:39;100632.84;;;16.09;100.00
70015;BME280;57358;51.094;6.760;2022-09-13T01:03:08;100621.53;;;16.07;100.00
70015;BME280;57358;51.094;6.760;2022-09-13T01:05:43;100607.81;;;16.13;100.00
70015;BME280;57358;51.094;6.760;2022-09-13T01:08:12;100614.47;;;16.19;100.00
70015;BME280;57358;51.094;6.760;2022-09-13T01:10:51;100551.25;;;15.80;100.00
70015;BME280;57358;51.094;6.760;2022-09-13T01:13:21;100616.28;;;16.18;100.00
70015;BME280;57358;51.094;6.760;2022-09-13T01:15:48;100594.69;;;16.00;100.00
70015;BME280;57358;51.094;6.760;2022-09-13T01:18:15;100626.13;;;16.16;100.00
70015;BME280;57358;51.094;6.760;2022-09-13T01:29:30;100604.34;;;16.12;100.00
70015;BME280;57358;51.094;6.760;2022-09-13T01:34:38;100606.38;;;16.09;100.00
70015;BME280;57358;51.094;6.760;2022-09-13T01:48:24;100593.88;;;16.00;100.00
70015;BME280;57358;51.094;6.760;2022-09-13T01:51:11;100582.06;;;15.92;100.00
70015;BME280;57358;51.094;6.760;2022-09-13T01:56:28;100585.94;;;16.00;100.00
70015;BME280;57358;51.094;6.760;2022-09-13T01:59:03;100587.84;;;15.98;100.00
70015;BME280;57358;51.094;6.760;2022-09-13T02:01:38;100547.56;;;15.70;100.00
70015;BME280;57358;51.094;6.760;2022-09-13T02:04:21;100567.84;;;15.82;100.00
70015;BME280;57358;51.094;6.760;2022-09-13T02:06:53;100533.94;;;15.63;100.00
70015;BME280;57358;51.094;6.760;2022-09-13T02:09:27;100379.91;;;14.55;100.00
70015;BME280;57358;51.094;6.760;2022-09-13T02:12:01;100570.38;;;15.84;100.00
70015;BME280;57358;51.094;6.760;2022-09-13T02:14:36;100534.41;;;15.57;100.00
70015;BME280;57358;51.094;6.760;2022-09-13T02:17:09;100570.75;;;15.90;100.00
70015;BME280;57358;51.094;6.760;2022-09-13T02:19:42;100396.34;;;14.71;100.00
70015;BME280;57358;51.094;6.760;2022-09-13T02:22:12;100337.91;;;14.52;100.00
70015;BME280;57358;51.094;6.760;2022-09-13T02:24:44;100576.41;;;15.97;100.00
70015;BME280;57358;51.094;6.760;2022-09-13T02:27:15;100567.41;;;16.00;100.00
70015;BME280;57358;51.094;6.760;2022-09-13T02:29:46;100568.13;;;16.02;100.00
70015;BME280;57358;51.094;6.760;2022-09-13T02:32:23;100351.19;;;14.74;100.00
70015;BME280;57358;51.094;6.760;2022-09-13T02:34:58;100559.94;;;16.05;100.00
70015;BME280;57358;51.094;6.760;2022-09-13T02:37:28;100338.09;;;14.73;100.00
70015;BME280;57358;51.094;6.760;2022-09-13T02:40:07;100559.81;;;16.06;100.00
70015;BME280;57358;51.094;6.760;2022-09-13T02:42:45;100382.47;;;14.92;100.00
70015;BME280;57358;51.094;6.760;2022-09-13T02:45:16;100557.63;;;16.11;100.00
70015;BME280;57358;51.094;6.760;2022-09-13T02:47:56;100564.53;;;16.14;100.00
70015;BME280;57358;51.094;6.760;2022-09-13T02:50:35;100558.03;;;16.18;100.00
70015;BME280;57358;51.094;6.760;2022-09-13T02:53:26;100371.44;;;14.98;100.00
70015;BME280;57358;51.094;6.760;2022-09-13T02:58:45;100549.34;;;16.27;100.00
70015;BME280;57358;51.094;6.760;2022-09-13T03:01:15;100546.94;;;16.24;100.00
70015;BME280;57358;51.094;6.760;2022-09-13T03:03:42;100560.44;;;16.32;100.00
70015;BME280;57358;51.094;6.760;2022-09-13T03:06:09;100372.47;;;15.20;100.00
70015;BME280;57358;51.094;6.760;2022-09-13T03:08:36;100562.34;;;16.30;100.00
70015;BME280;57358;51.094;6.760;2022-09-13T03:11:14;100575.84;;;16.39;100.00
70015;BME280;57358;51.094;6.760;2022-09-13T03:16:53;100540.09;;;16.22;100.00
70015;BME280;57358;51.094;6.760;2022-09-13T03:22:13;100566.91;;;16.40;100.00
70015;BME280;57358;51.094;6.760;2022-09-13T03:30:18;100333.84;;;14.94;100.00
70015;BME280;57358;51.094;6.760;2022-09-13T03:32:59;100362.84;;;15.19;100.00
70015;BME280;57358;51.094;6.760;2022-09-13T03:38:08;100545.75;;;16.28;100.00
70015;BME280;57358;51.094;6.760;2022-09-13T03:40:42;100370.84;;;14.94;100.00
70015;BME280;57358;51.094;6.760;2022-09-13T03:43:29;100524.91;;;16.12;100.00
70015;BME280;57358;51.094;6.760;2022-09-13T03:46:08;100533.31;;;16.18;100.00
70015;BME280;57358;51.094;6.760;2022-09-13T03:48:37;100472.34;;;15.74;100.00
70015;BME280;57358;51.094;6.760;2022-09-13T03:51:06;100535.41;;;16.14;100.00
70015;BME280;57358;51.094;6.760;2022-09-13T03:53:37;100480.50;;;15.82;100.00
70015;BME280;57358;51.094;6.760;2022-09-13T03:56:15;100539.94;;;16.01;100.00
70015;BME280;57358;51.094;6.760;2022-09-13T03:58:42;100284.19;;;14.64;100.00
70015;BME280;57358;51.094;6.760;2022-09-13T04:01:09;100516.47;;;16.07;100.00
70015;BME280;57358;51.094;6.760;2022-09-13T04:03:36;100480.97;;;15.87;100.00
70015;BME280;57358;51.094;6.760;2022-09-13T04:06:03;100476.66;;;15.86;100.00
70015;BME280;57358;51.094;6.760;2022-09-13T04:08:31;100519.00;;;16.09;100.00
70015;BME280;57358;51.094;6.760;2022-09-13T04:10:58;100532.50;;;16.17;100.00
70015;BME280;57358;51.094;6.760;2022-09-13T04:13:24;100319.66;;;14.84;100.00
70015;BME280;57358;51.094;6.760;2022-09-13T04:15:51;100516.47;;;16.07;100.00
70015;BME280;57358;51.094;6.760;2022-09-13T04:18:17;100535.03;;;16.19;100.00
70015;BME280;57358;51.094;6.760;2022-09-13T04:20:52;100526.25;;;16.18;100.00
70015;BME280;57358;51.094;6.760;2022-09-13T04:23:19;100317.00;;;14.84;100.00
70015;BME280;57358;51.094;6.760;2022-09-13T04:25:45;100528.19;;;16.16;100.00
70015;BME280;57358;51.094;6.760;2022-09-13T04:28:12;100506.16;;;16.04;100.00
70015;BME280;57358;51.094;6.760;2022-09-13T04:30:38;100522.88;;;16.16;100.00
70015;BME280;57358;51.094;6.760;2022-09-13T04:33:08;100519.50;;;16.14;100.00
70015;BME280;57358;51.094;6.760;2022-09-13T04:35:34;100508.69;;;16.06;100.00
70015;BME280;57358;51.094;6.760;2022-09-13T04:38:00;100533.94;;;16.10;100.00
70015;BME280;57358;51.094;6.760;2022-09-13T04:40:27;100521.53;;;16.10;100.00
70015;BME280;57358;51.094;6.760;2022-09-13T04:42:54;100518.19;;;16.08;100.00
70015;BME280;57358;51.094;6.760;2022-09-13T04:45:21;100397.09;;;15.20;100.00
70015;BME280;57358;51.094;6.760;2022-09-13T04:47:51;100529.50;;;16.10;100.00
70015;BME280;57358;51.094;6.760;2022-09-13T04:50:19;100523.84;;;16.04;100.00
70015;BME280;57358;51.094;6.760;2022-09-13T04:52:46;100539.72;;;16.04;100.00
70015;BME280;57358;51.094;6.760;2022-09-13T04:55:13;100521.66;;;15.86;100.00
70015;BME280;57358;51.094;6.760;2022-09-13T04:57:40;100541.75;;;16.00;100.00
70015;BME280;57358;51.094;6.760;2022-09-13T05:00:07;100540.78;;;16.01;100.00
70015;BME280;57358;51.094;6.760;2022-09-13T05:02:33;100496.25;;;15.72;100.00
70015;BME280;57358;51.094;6.760;2022-09-13T05:05:00;100545.25;;;16.01;100.00
70015;BME280;57358;51.094;6.760;2022-09-13T05:07:26;100494.78;;;15.68;100.00
70015;BME280;57358;51.094;6.760;2022-09-13T05:09:53;100530.94;;;15.92;100.00
70015;BME280;57358;51.094;6.760;2022-09-13T05:12:19;100539.94;;;16.01;100.00
70015;BME280;57358;51.094;6.760;2022-09-13T05:14:45;100528.16;;;16.05;100.00
70015;BME280;57358;51.094;6.760;2022-09-13T05:17:12;100529.84;;;16.06;100.00
70015;BME280;57358;51.094;6.760;2022-09-13T05:19:38;100518.28;;;16.07;100.00
70015;BME280;57358;51.094;6.760;2022-09-13T05:22:04;100520.00;;;16.08;100.00
70015;BME280;57358;51.094;6.760;2022-09-13T05:24:31;100498.31;;;15.91;100.00
70015;BME280;57358;51.094;6.760;2022-09-13T05:26:58;100528.88;;;16.07;100.00
70015;BME280;57358;51.094;6.760;2022-09-13T05:29:24;100447.28;;;15.55;100.00
70015;BME280;57358;51.094;6.760;2022-09-13T05:31:51;100497.34;;;15.81;100.00
70015;BME280;57358;51.094;6.760;2022-09-13T05:34:17;100533.22;;;16.08;100.00
70015;BME280;57358;51.094;6.760;2022-09-13T05:36:44;100532.38;;;16.07;100.00
70015;BME280;57358;51.094;6.760;2022-09-13T05:39:15;100356.91;;;14.92;100.00
70015;BME280;57358;51.094;6.760;2022-09-13T05:42:06;100514.31;;;16.01;100.00
70015;BME280;57358;51.094;6.760;2022-09-13T05:44:33;100532.75;;;16.14;100.00
70015;BME280;57358;51.094;6.760;2022-09-13T05:46:59;100533.22;;;16.19;100.00
70015;BME280;57358;51.094;6.760;2022-09-13T05:49:26;100304.31;;;14.89;100.00
70015;BME280;57358;51.094;6.760;2022-09-13T05:51:52;100520.59;;;16.23;100.00
70015;BME280;57358;51.094;6.760;2022-09-13T05:54:19;100532.25;;;16.31;100.00
70015;BME280;57358;51.094;6.760;2022-09-13T05:56:45;100531.91;;;16.36;100.00
70015;BME280;57358;51.094;6.760;2022-09-13T05:59:12;100529.81;;;16.40;100.00
70015;BME280;57358;51.094;6.760;2022-09-13T06:01:40;100454.63;;;15.97;100.00
70015;BME280;57358;51.094;6.760;2022-09-13T06:04:07;100518.16;;;16.42;100.00
70015;BME280;57358;51.094;6.760;2022-09-13T06:06:33;100418.34;;;15.88;100.00
70015;BME280;57358;51.094;6.760;2022-09-13T06:09:01;100320.78;;;15.27;100.00
70015;BME280;57358;51.094;6.760;2022-09-13T06:11:27;100526.06;;;16.53;100.00
70015;BME280;57358;51.094;6.760;2022-09-13T06:13:54;100319.84;;;15.28;100.00
70015;BME280;57358;51.094;6.760;2022-09-13T06:16:20;100416.25;;;15.91;100.00
70015;BME280;57358;51.094;6.760;2022-09-13T06:18:47;100538.22;;;16.79;100.00
70015;BME280;57358;51.094;6.760;2022-09-13T06:21:16;100524.72;;;16.82;100.00
70015;BME280;57358;51.094;6.760;2022-09-13T06:23:44;100531.44;;;16.97;100.00
70015;BME280;57358;51.094;6.760;2022-09-13T06:26:13;100538.44;;;16.98;100.00
70015;BME280;57358;51.094;6.760;2022-09-13T06:28:41;100540.22;;;16.98;100.00
70015;BME280;57358;51.094;6.760;2022-09-13T06:31:10;100532.75;;;17.03;100.00
70015;BME280;57358;51.094;6.760;2022-09-13T06:33:38;100536.94;;;17.05;100.00
70015;BME280;57358;51.094;6.760;2022-09-13T06:36:07;100530.81;;;17.05;100.00
70015;BME280;57358;51.094;6.760;2022-09-13T06:38:34;100543.56;;;17.11;100.00
70015;BME280;57358;51.094;6.760;2022-09-13T06:41:11;100537.63;;;17.19;100.00
70015;BME280;57358;51.094;6.760;2022-09-13T06:43:38;100519.31;;;17.15;100.00
70015;BME280;57358;51.094;6.760;2022-09-13T06:46:10;100530.78;;;17.37;100.00
70015;BME280;57358;51.094;6.760;2022-09-13T06:48:39;100488.16;;;17.29;100.00
70015;BME280;57358;51.094;6.760;2022-09-13T06:51:13;100517.41;;;17.60;100.00
70015;BME280;57358;51.094;6.760;2022-09-13T06:53:41;100471.13;;;17.31;100.00
70015;BME280;57358;51.094;6.760;2022-09-13T06:58:41;100506.88;;;17.48;100.00
70015;BME280;57358;51.094;6.760;2022-09-13T07:03:42;100506.91;;;17.79;100.00
70015;BME280;57358;51.094;6.760;2022-09-13T07:06:14;100512.44;;;17.87;100.00
70015;BME280;57358;51.094;6.760;2022-09-13T07:08:48;100510.47;;;17.89;100.00
70015;BME280;57358;51.094;6.760;2022-09-13T07:11:17;100525.34;;;18.02;100.00
70015;BME280;57358;51.094;6.760;2022-09-13T07:13:51;100520.53;;;18.17;100.00
70015;BME280;57358;51.094;6.760;2022-09-13T07:16:20;100512.44;;;18.18;100.00
70015;BME280;57358;51.094;6.760;2022-09-13T07:18:54;100518.34;;;18.31;100.00
70015;BME280;57358;51.094;6.760;2022-09-13T07:21:21;100513.06;;;18.41;100.00
70015;BME280;57358;51.094;6.760;2022-09-13T07:23:50;100508.50;;;18.53;100.00
70015;BME280;57358;51.094;6.760;2022-09-13T07:26:16;100512.00;;;18.63;100.00
70015;BME280;57358;51.094;6.760;2022-09-13T07:28:45;100515.25;;;18.77;100.00
70015;BME280;57358;51.094;6.760;2022-09-13T07:31:17;100535.72;;;18.86;100.00
70015;BME280;57358;51.094;6.760;2022-09-13T07:33:46;100510.69;;;18.88;100.00
70015;BME280;57358;51.094;6.760;2022-09-13T07:36:13;100519.53;;;19.08;100.00
70015;BME280;57358;51.094;6.760;2022-09-13T07:38:41;100520.06;;;19.12;100.00
70015;BME280;57358;51.094;6.760;2022-09-13T07:41:12;100519.50;;;19.28;100.00
70015;BME280;57358;51.094;6.760;2022-09-13T07:43:39;100493.31;;;19.04;100.00
70015;BME280;57358;51.094;6.760;2022-09-13T07:46:11;100335.72;;;18.14;100.00
70015;BME280;57358;51.094;6.760;2022-09-13T07:48:39;100353.09;;;18.38;100.00
70015;BME280;57358;51.094;6.760;2022-09-13T07:51:50;100528.03;;;19.51;100.00
70015;BME280;57358;51.094;6.760;2022-09-13T07:53:59;100531.09;;;19.56;100.00
70015;BME280;57358;51.094;6.760;2022-09-13T07:56:31;100381.22;;;18.69;100.00
70015;BME280;57358;51.094;6.760;2022-09-13T07:58:59;100538.34;;;19.93;100.00
70015;BME280;57358;51.094;6.760;2022-09-13T08:01:34;100541.50;;;20.06;100.00
70015;BME280;57358;51.094;6.760;2022-09-13T08:04:04;100538.41;;;20.21;100.00
70015;BME280;57358;51.094;6.760;2022-09-13T08:06:33;100491.13;;;19.85;97.75
70015;BME280;57358;51.094;6.760;2022-09-13T08:09:00;100539.47;;;20.28;96.82
70015;BME280;57358;51.094;6.760;2022-09-13T08:11:33;100547.84;;;20.43;96.28
70015;BME280;57358;51.094;6.760;2022-09-13T08:14:00;100541.75;;;20.50;95.43
70015;BME280;57358;51.094;6.760;2022-09-13T08:16:28;100523.94;;;20.51;95.62
70015;BME280;57358;51.094;6.760;2022-09-13T08:18:57;100548.84;;;20.69;92.44
70015;BME280;57358;51.094;6.760;2022-09-13T08:21:25;100556.13;;;20.95;92.58
70015;BME280;57358;51.094;6.760;2022-09-13T08:23:55;100557.25;;;21.10;91.68
70015;BME280;57358;51.094;6.760;2022-09-13T08:26:28;100324.72;;;19.62;90.44
70015;BME280;57358;51.094;6.760;2022-09-13T08:28:57;100537.19;;;20.88;89.70
70015;BME280;57358;51.094;6.760;2022-09-13T08:31:24;100528.75;;;20.75;88.57
70015;BME280;57358;51.094;6.760;2022-09-13T08:33:52;100369.13;;;19.99;88.77
70015;BME280;57358;51.094;6.760;2022-09-13T08:36:19;100366.56;;;20.07;88.65
70015;BME280;57358;51.094;6.760;2022-09-13T08:38:51;100550.81;;;21.31;88.94
70015;BME280;57358;51.094;6.760;2022-09-13T08:46:44;100491.75;;;21.34;84.71
70015;BME280;57358;51.094;6.760;2022-09-13T08:49:19;100558.63;;;21.95;80.76
70015;BME280;57358;51.094;6.760;2022-09-13T08:51:49;100557.53;;;22.05;79.49
70015;BME280;57358;51.094;6.760;2022-09-13T08:54:17;100533.41;;;21.89;79.28
70015;BME280;57358;51.094;6.760;2022-09-13T08:57:02;100548.41;;;22.16;81.24
70015;BME280;57358;51.094;6.760;2022-09-13T08:59:43;100552.28;;;22.22;81.39
70015;BME280;57358;51.094;6.760;2022-09-13T09:02:26;100325.38;;;20.73;79.62
70015;BME280;57358;51.094;6.760;2022-09-13T09:05:09;100549.56;;;22.40;78.97
70015;BME280;57358;51.094;6.760;2022-09-13T09:07:50;100552.66;;;22.61;78.29
70015;BME280;57358;51.094;6.760;2022-09-13T09:10:30;100550.25;;;22.50;77.53
70015;BME280;57358;51.094;6.760;2022-09-13T09:15:32;100549.28;;;23.10;77.24
70015;BME280;57358;51.094;6.760;2022-09-13T09:20:40;100525.84;;;23.45;75.85
70015;BME280;57358;51.094;6.760;2022-09-13T09:23:18;100535.38;;;23.72;74.99
70015;BME280;57358;51.094;6.760;2022-09-13T09:25:50;100252.53;;;22.17;73.76
70015;BME280;57358;51.094;6.760;2022-09-13T09:28:18;100527.50;;;23.79;73.26
70015;BME280;57358;51.094;6.760;2022-09-13T09:31:08;100536.50;;;24.02;72.14
70015;BME280;57358;51.094;6.760;2022-09-13T09:36:25;100370.91;;;23.17;73.05
70015;BME280;57358;51.094;6.760;2022-09-13T09:38:54;100540.69;;;24.53;72.25
70015;BME280;57358;51.094;6.760;2022-09-13T09:41:29;100343.06;;;23.43;70.92
70015;BME280;57358;51.094;6.760;2022-09-13T09:46:58;100534.63;;;24.11;69.51
70015;BME280;57358;51.094;6.760;2022-09-13T09:49:34;100561.25;;;24.21;70.42
70015;BME280;57358;51.094;6.760;2022-09-13T09:52:22;100528.91;;;24.22;71.21
70015;BME280;57358;51.094;6.760;2022-09-13T09:54:56;100553.59;;;24.49;71.80
70015;BME280;57358;51.094;6.760;2022-09-13T09:57:52;100551.78;;;24.81;71.00
70015;BME280;57358;51.094;6.760;2022-09-13T10:00:21;100541.53;;;24.84;66.45
70015;BME280;57358;51.094;6.760;2022-09-13T10:02:51;100546.19;;;24.59;67.63
70015;BME280;57358;51.094;6.760;2022-09-13T10:05:20;100544.50;;;24.89;68.05
70015;BME280;57358;51.094;6.760;2022-09-13T10:07:53;100392.72;;;24.09;67.48
70015;BME280;57358;51.094;6.760;2022-09-13T10:10:28;100542.75;;;25.05;66.89
70015;BME280;57358;51.094;6.760;2022-09-13T10:12:57;100546.69;;;24.94;67.51
70015;BME280;57358;51.094;6.760;2022-09-13T10:15:27;100538.59;;;25.25;66.60
70015;BME280;57358;51.094;6.760;2022-09-13T10:18:02;100537.38;;;25.51;65.54
70015;BME280;57358;51.094;6.760;2022-09-13T10:20:29;100549.69;;;25.22;65.63
70015;BME280;57358;51.094;6.760;2022-09-13T10:23:16;100551.03;;;24.95;65.92
70015;BME280;57358;51.094;6.760;2022-09-13T10:26:00;100409.66;;;24.33;66.74
70015;BME280;57358;51.094;6.760;2022-09-13T10:28:29;100549.47;;;25.32;65.48
70015;BME280;57358;51.094;6.760;2022-09-13T10:31:04;100499.09;;;25.49;64.96
70015;BME280;57358;51.094;6.760;2022-09-13T10:33:51;100530.88;;;26.13;63.54
70015;BME280;57358;51.094;6.760;2022-09-13T10:36:32;100530.16;;;26.04;65.68
70015;BME280;57358;51.094;6.760;2022-09-13T10:39:20;100527.16;;;25.99;63.81
70015;BME280;57358;51.094;6.760;2022-09-13T10:42:01;100503.25;;;26.04;61.47
70015;BME280;57358;51.094;6.760;2022-09-13T10:44:42;100524.50;;;26.14;61.98
70015;BME280;57358;51.094;6.760;2022-09-13T10:47:43;100521.16;;;26.12;64.35
70015;BME280;57358;51.094;6.760;2022-09-13T10:50:23;100519.94;;;26.00;60.46
70015;BME280;57358;51.094;6.760;2022-09-13T10:52:53;100525.75;;;25.36;61.89
70015;BME280;57358;51.094;6.760;2022-09-13T10:55:27;100549.56;;;25.39;63.31
70015;BME280;57358;51.094;6.760;2022-09-13T11:11:23;100533.69;;;25.52;66.53
70015;BME280;57358;51.094;6.760;2022-09-13T11:14:21;100532.00;;;25.51;63.84
70015;BME280;57358;51.094;6.760;2022-09-13T11:17:11;100533.41;;;25.16;66.46
70015;BME280;57358;51.094;6.760;2022-09-13T11:28:22;100457.25;;;25.84;63.48
70015;BME280;57358;51.094;6.760;2022-09-13T11:31:08;100512.50;;;26.32;63.39
70015;BME280;57358;51.094;6.760;2022-09-13T11:36:41;100497.00;;;26.34;63.03
70015;BME280;57358;51.094;6.760;2022-09-13T11:41:45;100498.56;;;26.43;60.44
70015;BME280;57358;51.094;6.760;2022-09-13T11:44:39;100493.66;;;26.32;61.94
70015;BME280;57358;51.094;6.760;2022-09-13T11:47:38;100492.47;;;26.19;62.01
70015;BME280;57358;51.094;6.760;2022-09-13T11:55:25;100493.91;;;27.10;58.75
70015;BME280;57358;51.094;6.760;2022-09-13T11:57:58;100478.84;;;26.94;57.65
70015;BME280;57358;51.094;6.760;2022-09-13T12:00:31;100384.50;;;26.44;55.83
70015;BME280;57358;51.094;6.760;2022-09-13T12:03:17;100483.03;;;26.96;55.94
70015;BME280;57358;51.094;6.760;2022-09-13T12:05:51;100503.56;;;27.04;55.52
70015;BME280;57358;51.094;6.760;2022-09-13T12:08:24;100477.72;;;27.10;55.24
70015;BME280;57358;51.094;6.760;2022-09-13T12:10:58;100470.97;;;27.42;55.94
70015;BME280;57358;51.094;6.760;2022-09-13T12:13:31;100474.75;;;27.48;55.45
70015;BME280;57358;51.094;6.760;2022-09-13T12:16:02;100476.13;;;27.37;55.09
70015;BME280;57358;51.094;6.760;2022-09-13T12:18:39;100480.19;;;27.04;53.83
70015;BME280;57358;51.094;6.760;2022-09-13T12:21:10;100443.53;;;27.10;55.53
70015;BME280;57358;51.094;6.760;2022-09-13T12:23:54;100283.19;;;26.08;54.62
70015;BME280;57358;51.094;6.760;2022-09-13T12:26:57;100473.09;;;27.81;55.06
70015;BME280;57358;51.094;6.760;2022-09-13T12:29:39;100468.41;;;27.62;53.58
70015;BME280;57358;51.094;6.760;2022-09-13T12:32:09;100457.09;;;27.73;54.20
70015;BME280;57358;51.094;6.760;2022-09-13T12:34:41;100462.38;;;27.88;54.90
70015;BME280;57358;51.094;6.760;2022-09-13T12:40:06;100462.41;;;27.10;55.87
70015;BME280;57358;51.094;6.760;2022-09-13T12:48:38;100476.59;;;27.19;54.33
70015;BME280;57358;51.094;6.760;2022-09-13T12:59:07;100481.34;;;27.73;55.30
70015;BME280;57358;51.094;6.760;2022-09-13T13:01:36;100467.50;;;27.83;55.59
70015;BME280;57358;51.094;6.760;2022-09-13T13:04:13;100355.16;;;27.20;52.99
70015;BME280;57358;51.094;6.760;2022-09-13T13:06:49;100471.09;;;27.62;53.21
70015;BME280;57358;51.094;6.760;2022-09-13T13:09:37;100478.97;;;27.57;52.81
70015;BME280;57358;51.094;6.760;2022-09-13T13:12:09;100408.34;;;27.12;53.37
70015;BME280;57358;51.094;6.760;2022-09-13T13:17:45;100466.78;;;27.33;57.07
70015;BME280;57358;51.094;6.760;2022-09-13T13:26:08;100461.06;;;27.84;55.84
70015;BME280;57358;51.094;6.760;2022-09-13T13:33:47;100431.22;;;27.85;54.57
70015;BME280;57358;51.094;6.760;2022-09-13T13:36:25;100462.88;;;27.42;55.65
70015;BME280;57358;51.094;6.760;2022-09-13T13:38:55;100270.31;;;25.67;57.29
70015;BME280;57358;51.094;6.760;2022-09-13T13:41:35;100466.41;;;26.93;58.21
70015;BME280;57358;51.094;6.760;2022-09-13T13:59:52;100310.59;;;26.18;56.61
70015;BME280;57358;51.094;6.760;2022-09-13T14:02:22;100180.81;;;25.52;56.71
70015;BME280;57358;51.094;6.760;2022-09-13T14:05:07;100462.16;;;27.55;55.59
70015;BME280;57358;51.094;6.760;2022-09-13T14:10:36;100416.97;;;27.92;54.31
70015;BME280;57358;51.094;6.760;2022-09-13T14:13:27;100441.69;;;28.02;54.06
70015;BME280;57358;51.094;6.760;2022-09-13T14:16:10;100433.66;;;28.15;55.71
70015;BME280;57358;51.094;6.760;2022-09-13T14:19:01;100435.78;;;28.27;53.45
70015;BME280;57358;51.094;6.760;2022-09-13T14:21:32;100185.78;;;26.41;54.73
70015;BME280;57358;51.094;6.760;2022-09-13T14:24:16;100439.22;;;28.07;54.09
70015;BME280;57358;51.094;6.760;2022-09-13T14:26:45;100438.88;;;27.82;52.89
70015;BME280;57358;51.094;6.760;2022-09-13T14:29:21;100444.69;;;27.79;55.77
70015;BME280;57358;51.094;6.760;2022-09-13T14:31:49;100443.19;;;28.04;55.28
70015;BME280;57358;51.094;6.760;2022-09-13T14:34:27;100389.69;;;27.80;54.77
70015;BME280;57358;51.094;6.760;2022-09-13T14:37:00;100440.94;;;28.15;54.46
70015;BME280;57358;51.094;6.760;2022-09-13T14:39:28;100440.88;;;28.08;55.35
70015;BME280;57358;51.094;6.760;2022-09-13T14:42:12;100439.50;;;27.84;54.92
70015;BME280;57358;51.094;6.760;2022-09-13T14:44:46;100260.34;;;26.69;55.85
70015;BME280;57358;51.094;6.760;2022-09-13T14:49:53;100300.19;;;27.15;55.99
70015;BME280;57358;51.094;6.760;2022-09-13T14:52:31;100428.00;;;28.03;55.29
70015;BME280;57358;51.094;6.760;2022-09-13T14:55:07;100436.47;;;27.59;54.76
70015;BME280;57358;51.094;6.760;2022-09-13T14:57:42;100437.56;;;28.06;55.13
70015;BME280;57358;51.094;6.760;2022-09-13T15:00:20;100431.22;;;28.34;54.33
70015;BME280;57358;51.094;6.760;2022-09-13T15:03:00;100261.53;;;27.29;52.39
70015;BME280;57358;51.094;6.760;2022-09-13T15:05:31;100282.81;;;27.59;52.57
70015;BME280;57358;51.094;6.760;2022-09-13T15:07:58;100395.53;;;27.83;52.72
70015;BME280;57358;51.094;6.760;2022-09-13T15:10:31;100396.25;;;27.64;54.23
70015;BME280;57358;51.094;6.760;2022-09-13T15:20:53;100449.00;;;27.17;58.19
70015;BME280;57358;51.094;6.760;2022-09-13T15:23:26;100463.47;;;27.16;57.13
70015;BME280;57358;51.094;6.760;2022-09-13T15:26:09;100433.38;;;26.84;56.58
70015;BME280;57358;51.094;6.760;2022-09-13T15:31:09;100455.56;;;26.64;59.74
70015;BME280;57358;51.094;6.760;2022-09-13T15:33:36;100397.16;;;26.07;59.16
70015;BME280;57358;51.094;6.760;2022-09-13T15:39:14;100475.69;;;26.32;60.65
70015;BME280;57358;51.094;6.760;2022-09-13T15:41:53;100429.78;;;26.04;60.28
70015;BME280;57358;51.094;6.760;2022-09-13T15:44:20;100468.53;;;26.24;61.18
70015;BME280;57358;51.094;6.760;2022-09-13T15:46:55;100466.69;;;26.25;60.80
70015;BME280;57358;51.094;6.760;2022-09-13T15:49:24;100467.63;;;26.17;60.97
70015;BME280;57358;51.094;6.760;2022-09-13T15:51:57;100472.28;;;25.94;62.21
70015;BME280;57358;51.094;6.760;2022-09-13T15:54:30;100472.91;;;25.81;62.89
70015;BME280;57358;51.094;6.760;2022-09-13T15:56:57;100449.81;;;25.57;65.30
70015;BME280;57358;51.094;6.760;2022-09-13T15:59:23;100476.44;;;25.66;64.56